createdAt,value
2023-04-02T00:00:36.168Z,100.00
2023-04-02T00:03:08.752Z,100.00
2023-04-02T00:05:52.934Z,100.00
2023-04-02T00:08:39.028Z,100.00
2023-04-02T00:11:10.358Z,100.00
2023-04-02T00:13:43.647Z,100.00
2023-04-02T00:16:15.916Z,100.00
2023-04-02T00:18:50.288Z,100.00
2023-04-02T00:21:25.873Z,100.00
2023-04-02T00:23:57.176Z,100.00
2023-04-02T00:26:32.383Z,100.00
2023-04-02T00:29:01.787Z,100.00
2023-04-02T00:31:31.205Z,100.00
2023-04-02T00:34:02.622Z,100.00
2023-04-02T00:36:35.673Z,100.00
2023-04-02T00:39:08.997Z,100.00
2023-04-02T00:41:39.355Z,100.00
2023-04-02T00:44:12.681Z,100.00
2023-04-02T00:47:09.338Z,100.00
2023-04-02T00:49:41.062Z,100.00
2023-04-02T00:52:15.780Z,100.00
2023-04-02T00:54:49.766Z,100.00
2023-04-02T00:57:23.567Z,100.00
2023-04-02T00:59:56.999Z,100.00
2023-04-02T01:02:31.030Z,100.00
2023-04-02T01:05:03.680Z,100.00
2023-04-02T01:07:55.991Z,100.00
2023-04-02T01:10:41.646Z,100.00
2023-04-02T01:13:16.272Z,100.00
2023-04-02T01:15:53.183Z,100.00
2023-04-02T01:18:33.402Z,100.00
2023-04-02T01:21:17.964Z,100.00
2023-04-02T01:23:58.971Z,100.00
2023-04-02T01:26:38.121Z,100.00
2023-04-02T01:29:12.457Z,100.00
2023-04-02T01:31:43.795Z,100.00
2023-04-02T01:34:15.744Z,100.00
2023-04-02T01:37:01.163Z,100.00
2023-04-02T01:39:43.370Z,100.00
2023-04-02T01:42:18.502Z,100.00
2023-04-02T01:44:52.266Z,100.00
2023-04-02T01:47:27.459Z,100.00
2023-04-02T01:50:03.966Z,100.00
2023-04-02T01:52:40.833Z,100.00
2023-04-02T01:55:13.235Z,100.00
2023-04-02T01:57:45.088Z,100.00
2023-04-02T02:00:18.144Z,100.00
2023-04-02T02:02:53.336Z,100.00
2023-04-02T02:05:24.797Z,100.00
2023-04-02T02:07:58.008Z,100.00
2023-04-02T02:10:30.718Z,100.00
2023-04-02T02:13:00.591Z,100.00
2023-04-02T02:15:34.795Z,100.00
2023-04-02T02:18:06.876Z,100.00
2023-04-02T02:20:37.190Z,100.00
2023-04-02T02:23:07.382Z,100.00
2023-04-02T02:25:37.873Z,100.00
2023-04-02T02:28:09.600Z,100.00
2023-04-02T02:30:44.884Z,100.00
2023-04-02T02:33:21.957Z,100.00
2023-04-02T02:35:56.808Z,100.00
2023-04-02T02:38:42.190Z,100.00
2023-04-02T02:41:24.755Z,100.00
2023-04-02T02:44:01.517Z,100.00
2023-04-02T02:46:35.571Z,100.00
2023-04-02T02:49:12.121Z,100.00
2023-04-02T02:51:45.532Z,100.00
2023-04-02T02:54:20.426Z,100.00
2023-04-02T02:56:56.442Z,100.00
2023-04-02T02:59:28.104Z,100.00
2023-04-02T03:02:00.686Z,100.00
2023-04-02T03:04:35.920Z,100.00
2023-04-02T03:07:10.567Z,100.00
2023-04-02T03:09:48.040Z,100.00
2023-04-02T03:12:38.673Z,100.00
2023-04-02T03:15:19.516Z,100.00
2023-04-02T03:17:54.945Z,100.00
2023-04-02T03:20:29.937Z,100.00
2023-04-02T03:23:04.076Z,100.00
2023-04-02T03:25:41.881Z,100.00
2023-04-02T03:28:18.205Z,100.00
2023-04-02T03:30:52.426Z,100.00
2023-04-02T03:33:28.539Z,100.00
2023-04-02T03:36:04.838Z,100.00
2023-04-02T03:38:46.719Z,100.00
2023-04-02T03:41:21.304Z,100.00
2023-04-02T03:43:57.975Z,100.00
2023-04-02T03:46:34.857Z,100.00
2023-04-02T03:49:11.083Z,100.00
2023-04-02T03:51:48.426Z,100.00
2023-04-02T03:54:18.429Z,100.00
2023-04-02T03:56:48.249Z,100.00
2023-04-02T03:59:35.990Z,100.00
2023-04-02T04:02:15.996Z,100.00
2023-04-02T04:04:49.932Z,100.00
2023-04-02T04:07:29.286Z,100.00
2023-04-02T04:10:00.619Z,100.00
2023-04-02T04:12:36.062Z,100.00
2023-04-02T04:15:11.325Z,100.00
2023-04-02T04:17:51.721Z,100.00
2023-04-02T04:20:28.277Z,100.00
2023-04-02T04:23:11.018Z,100.00
2023-04-02T04:25:41.006Z,100.00
2023-04-02T04:28:38.491Z,100.00
2023-04-02T04:31:21.375Z,100.00
2023-04-02T04:34:06.871Z,100.00
2023-04-02T04:36:54.435Z,100.00
2023-04-02T04:39:36.853Z,100.00
2023-04-02T04:42:08.487Z,100.00
2023-04-02T04:44:45.603Z,100.00
2023-04-02T04:47:21.643Z,100.00
2023-04-02T04:49:56.023Z,100.00
2023-04-02T04:52:30.738Z,100.00
2023-04-02T04:55:01.472Z,100.00
2023-04-02T04:57:35.324Z,100.00
2023-04-02T05:00:18.576Z,100.00
2023-04-02T05:02:55.262Z,100.00
2023-04-02T05:05:30.610Z,100.00
2023-04-02T05:08:24.288Z,100.00
2023-04-02T05:10:59.487Z,100.00
2023-04-02T05:13:36.152Z,100.00
2023-04-02T05:16:15.161Z,100.00
2023-04-02T05:18:51.976Z,100.00
2023-04-02T05:21:27.650Z,100.00
2023-04-02T05:24:06.942Z,100.00
2023-04-02T05:26:43.438Z,100.00
2023-04-02T05:29:19.919Z,100.00
2023-04-02T05:31:55.732Z,100.00
2023-04-02T05:34:29.910Z,100.00
2023-04-02T05:37:00.229Z,100.00
2023-04-02T05:39:32.604Z,100.00
2023-04-02T05:42:06.199Z,100.00
2023-04-02T05:45:02.542Z,100.00
2023-04-02T05:47:41.151Z,100.00
2023-04-02T05:50:26.707Z,100.00
2023-04-02T05:53:04.229Z,100.00
2023-04-02T05:55:52.431Z,100.00
2023-04-02T05:58:36.277Z,100.00
2023-04-02T06:01:25.285Z,100.00
2023-04-02T06:04:03.167Z,100.00
2023-04-02T06:06:50.246Z,100.00
2023-04-02T06:09:26.542Z,100.00
2023-04-02T06:12:12.516Z,100.00
2023-04-02T06:15:09.035Z,100.00
2023-04-02T06:17:48.144Z,100.00
2023-04-02T06:20:20.650Z,100.00
2023-04-02T06:22:52.866Z,100.00
2023-04-02T06:25:27.514Z,100.00
2023-04-02T06:28:01.507Z,100.00
2023-04-02T06:30:44.530Z,100.00
2023-04-02T06:33:14.687Z,100.00
2023-04-02T06:35:51.171Z,100.00
2023-04-02T06:38:32.519Z,100.00
2023-04-02T06:41:04.627Z,100.00
2023-04-02T06:43:47.301Z,100.00
2023-04-02T06:46:29.765Z,100.00
2023-04-02T06:49:23.265Z,100.00
2023-04-02T06:52:01.282Z,100.00
2023-04-02T06:54:33.525Z,100.00
2023-04-02T06:57:08.941Z,100.00
2023-04-02T06:59:45.382Z,100.00
2023-04-02T07:02:32.978Z,100.00
2023-04-02T07:05:09.360Z,100.00
2023-04-02T07:07:42.580Z,100.00
2023-04-02T07:10:13.960Z,100.00
2023-04-02T07:12:43.178Z,100.00
2023-04-02T07:15:17.367Z,100.00
2023-04-02T07:17:47.791Z,100.00
2023-04-02T07:20:29.183Z,100.00
2023-04-02T07:23:00.149Z,100.00
2023-04-02T07:25:29.251Z,100.00
2023-04-02T07:27:58.534Z,100.00
2023-04-02T07:30:29.334Z,100.00
2023-04-02T07:32:58.530Z,100.00
2023-04-02T07:35:27.621Z,99.85
2023-04-02T07:37:56.788Z,100.00
2023-04-02T07:40:29.144Z,100.00
2023-04-02T07:42:58.737Z,100.00
2023-04-02T07:45:29.603Z,100.00
2023-04-02T07:48:01.469Z,100.00
2023-04-02T07:50:31.074Z,100.00
2023-04-02T07:53:00.631Z,100.00
2023-04-02T07:55:29.736Z,100.00
2023-04-02T07:58:00.656Z,99.58
2023-04-02T08:00:32.441Z,98.69
2023-04-02T08:03:01.752Z,98.30
2023-04-02T08:05:31.007Z,97.43
2023-04-02T08:08:00.142Z,97.14
2023-04-02T08:10:29.493Z,95.97
2023-04-02T08:12:59.018Z,93.83
2023-04-02T08:15:28.299Z,93.16
2023-04-02T08:17:59.289Z,92.78
2023-04-02T08:20:28.737Z,95.07
2023-04-02T08:23:01.236Z,96.55
2023-04-02T08:25:31.110Z,97.52
2023-04-02T08:28:01.738Z,97.58
2023-04-02T08:30:31.515Z,97.80
2023-04-02T08:33:02.264Z,98.59
2023-04-02T08:35:31.904Z,98.10
2023-04-02T08:38:01.593Z,96.78
2023-04-02T08:40:34.497Z,96.14
2023-04-02T08:43:17.059Z,96.29
2023-04-02T08:46:05.033Z,98.53
2023-04-02T08:48:40.787Z,99.22
2023-04-02T08:51:23.129Z,97.86
2023-04-02T08:53:54.796Z,96.98
2023-04-02T08:56:30.644Z,95.86
2023-04-02T08:59:03.984Z,95.93
2023-04-02T09:01:41.628Z,96.81
2023-04-02T09:04:19.065Z,97.17
2023-04-02T09:06:50.519Z,98.26
2023-04-02T09:09:21.789Z,98.17
2023-04-02T09:12:01.574Z,97.62
2023-04-02T09:14:37.934Z,98.47
2023-04-02T09:17:14.295Z,98.30
2023-04-02T09:19:56.321Z,97.47
2023-04-02T09:22:28.665Z,97.22
2023-04-02T09:24:59.338Z,96.11
2023-04-02T09:27:31.647Z,95.52
2023-04-02T09:30:04.914Z,94.35
2023-04-02T09:32:50.589Z,94.56
2023-04-02T09:35:26.571Z,96.00
2023-04-02T09:38:19.052Z,93.67
2023-04-02T09:40:51.879Z,93.21
2023-04-02T09:43:29.606Z,92.19
2023-04-02T09:46:01.987Z,93.28
2023-04-02T09:48:34.308Z,91.89
2023-04-02T09:51:21.869Z,92.53
2023-04-02T09:53:52.361Z,92.44
2023-04-02T09:56:23.698Z,91.01
2023-04-02T09:59:06.171Z,90.00
2023-04-02T10:01:39.002Z,90.97
2023-04-02T10:04:38.862Z,90.37
2023-04-02T10:07:29.604Z,91.01
2023-04-02T10:09:59.905Z,91.32
2023-04-02T10:12:33.446Z,90.89
2023-04-02T10:15:05.604Z,90.79
2023-04-02T10:17:38.874Z,92.17
2023-04-02T10:20:20.288Z,92.87
2023-04-02T10:22:51.645Z,92.85
2023-04-02T10:25:27.291Z,94.67
2023-04-02T10:28:07.616Z,94.74
2023-04-02T10:30:46.876Z,94.54
2023-04-02T10:33:23.883Z,95.15
2023-04-02T10:36:00.264Z,93.09
2023-04-02T10:38:52.279Z,91.27
2023-04-02T10:41:31.846Z,90.80
2023-04-02T10:44:29.467Z,88.11
2023-04-02T10:47:10.414Z,88.03
2023-04-02T10:49:45.391Z,88.39
2023-04-02T10:52:21.310Z,88.63
2023-04-02T10:54:53.116Z,88.11
2023-04-02T10:57:35.399Z,86.78
2023-04-02T11:00:17.408Z,84.56
2023-04-02T11:02:52.372Z,82.67
2023-04-02T11:05:24.994Z,81.47
2023-04-02T11:08:08.166Z,80.89
2023-04-02T11:10:44.475Z,80.72
2023-04-02T11:13:20.205Z,80.27
2023-04-02T11:15:50.850Z,81.92
2023-04-02T11:18:26.350Z,80.70
2023-04-02T11:21:01.671Z,80.77
2023-04-02T11:23:32.297Z,81.54
2023-04-02T11:26:35.571Z,80.38
2023-04-02T11:29:18.757Z,79.23
2023-04-02T11:31:48.616Z,79.10
2023-04-02T11:35:06.624Z,78.67
2023-04-02T11:37:39.834Z,78.31
2023-04-02T11:40:48.939Z,79.66
2023-04-02T11:44:01.500Z,81.10
2023-04-02T11:46:41.857Z,81.45
2023-04-02T11:49:42.064Z,81.48
2023-04-02T11:52:27.174Z,81.55
2023-04-02T11:55:19.364Z,80.52
2023-04-02T11:58:22.956Z,83.60
2023-04-02T12:05:24.594Z,81.18
2023-04-02T12:08:12.549Z,81.55
2023-04-02T12:10:56.293Z,81.62
2023-04-02T12:13:53.115Z,83.49
2023-04-02T12:16:29.387Z,81.94
2023-04-02T12:18:59.550Z,83.04
2023-04-02T12:21:31.571Z,82.98
2023-04-02T12:24:04.114Z,83.02
2023-04-02T12:26:38.019Z,81.60
2023-04-02T12:29:18.203Z,82.74
2023-04-02T12:31:48.964Z,82.90
2023-04-02T12:34:20.364Z,83.76
2023-04-02T12:37:20.980Z,83.68
2023-04-02T12:39:58.413Z,84.04
2023-04-02T12:42:32.513Z,85.03
2023-04-02T12:45:02.594Z,86.59
2023-04-02T12:47:32.905Z,87.84
2023-04-02T12:50:04.441Z,87.35
2023-04-02T12:52:36.326Z,87.73
2023-04-02T12:55:07.843Z,88.87
2023-04-02T12:57:42.834Z,87.82
2023-04-02T13:00:36.568Z,86.48
2023-04-02T13:03:19.814Z,86.40
2023-04-02T13:05:55.390Z,86.13
2023-04-02T13:08:28.735Z,86.38
2023-04-02T13:11:00.924Z,86.10
2023-04-02T13:13:37.990Z,85.00
2023-04-02T13:16:25.688Z,83.88
2023-04-02T13:19:16.437Z,82.95
2023-04-02T13:21:49.479Z,81.65
2023-04-02T13:24:21.659Z,81.38
2023-04-02T13:26:52.288Z,80.96
2023-04-02T13:29:26.549Z,81.25
2023-04-02T13:31:58.075Z,81.50
2023-04-02T13:34:28.192Z,80.81
2023-04-02T13:36:58.876Z,79.27
2023-04-02T13:39:30.685Z,78.97
2023-04-02T13:42:04.453Z,79.24
2023-04-02T13:44:37.189Z,79.11
2023-04-02T13:47:06.989Z,78.87
2023-04-02T13:49:36.700Z,78.27
2023-04-02T13:52:06.531Z,79.32
2023-04-02T13:54:44.950Z,79.99
2023-04-02T13:57:16.595Z,79.66
2023-04-02T13:59:46.434Z,78.42
2023-04-02T14:02:20.196Z,78.42
2023-04-02T14:04:54.004Z,79.03
2023-04-02T14:07:51.884Z,78.95
2023-04-02T14:10:32.015Z,79.47
2023-04-02T14:13:15.311Z,79.54
2023-04-02T14:15:56.991Z,79.87
2023-04-02T14:18:43.847Z,80.37
2023-04-02T14:21:23.456Z,80.18
2023-04-02T14:24:06.337Z,80.37
2023-04-02T14:26:49.997Z,80.81
2023-04-02T14:29:28.795Z,80.65
2023-04-02T14:32:07.112Z,81.15
2023-04-02T14:34:44.545Z,81.51
2023-04-02T14:37:22.679Z,82.10
2023-04-02T14:40:01.318Z,81.87
2023-04-02T14:42:37.363Z,82.61
2023-04-02T14:45:11.922Z,82.17
2023-04-02T14:47:46.828Z,81.23
2023-04-02T14:50:21.317Z,81.62
2023-04-02T14:52:56.722Z,82.41
2023-04-02T14:55:32.959Z,82.39
2023-04-02T14:58:07.026Z,82.80
2023-04-02T15:00:43.059Z,83.39
2023-04-02T15:03:19.435Z,83.52
2023-04-02T15:05:51.522Z,84.18
2023-04-02T15:08:24.396Z,83.13
2023-04-02T15:11:04.232Z,83.89
2023-04-02T15:13:40.063Z,83.86
2023-04-02T15:16:14.900Z,83.83
2023-04-02T15:18:47.166Z,83.67
2023-04-02T15:21:49.771Z,84.96
2023-04-02T15:24:31.499Z,85.37
2023-04-02T15:27:23.916Z,86.02
2023-04-02T15:30:02.601Z,86.18
2023-04-02T15:32:39.030Z,86.37
2023-04-02T15:35:21.251Z,86.42
2023-04-02T15:38:01.469Z,86.70
2023-04-02T15:40:44.774Z,87.14
2023-04-02T15:43:21.028Z,87.60
2023-04-02T15:46:07.518Z,87.83
2023-04-02T15:49:01.531Z,87.81
2023-04-02T15:51:43.121Z,88.52
2023-04-02T15:54:26.034Z,88.65
2023-04-02T15:57:08.691Z,89.15
2023-04-02T16:00:16.196Z,90.92
2023-04-02T16:03:18.571Z,90.10
2023-04-02T16:06:01.904Z,90.86
2023-04-02T16:08:45.446Z,91.58
2023-04-02T16:11:16.287Z,91.84
2023-04-02T16:13:47.219Z,91.50
2023-04-02T16:16:21.286Z,91.38
2023-04-02T16:19:00.906Z,91.44
2023-04-02T16:21:33.531Z,91.73
2023-04-02T16:24:02.993Z,92.46
2023-04-02T16:26:45.353Z,91.99
2023-04-02T16:29:28.250Z,91.29
2023-04-02T16:32:05.492Z,91.21
2023-04-02T16:34:48.693Z,90.46
2023-04-02T16:37:27.830Z,89.59
2023-04-02T16:40:08.392Z,88.69
2023-04-02T16:42:47.997Z,88.46
2023-04-02T16:45:30.166Z,88.01
2023-04-02T16:48:15.670Z,88.68
2023-04-02T16:50:56.231Z,88.71
2023-04-02T16:53:35.787Z,89.00
2023-04-02T16:56:21.703Z,89.57
2023-04-02T16:59:02.351Z,88.89
2023-04-02T17:01:43.206Z,89.50
2023-04-02T17:04:35.969Z,89.99
2023-04-02T17:07:14.022Z,90.94
2023-04-02T17:09:50.546Z,90.39
2023-04-02T17:12:23.352Z,90.95
2023-04-02T17:14:55.549Z,91.71
2023-04-02T17:17:58.025Z,91.21
2023-04-02T17:20:46.139Z,91.63
2023-04-02T17:23:18.421Z,91.22
2023-04-02T17:25:52.211Z,90.60
2023-04-02T17:28:26.428Z,90.79
2023-04-02T17:31:00.449Z,90.05
2023-04-02T17:33:29.805Z,89.75
2023-04-02T17:36:22.585Z,90.18
2023-04-02T17:39:04.187Z,89.38
2023-04-02T17:41:39.756Z,88.96
2023-04-02T17:44:51.077Z,88.39
2023-04-02T17:47:25.166Z,88.55
2023-04-02T17:50:17.467Z,88.95
2023-04-02T17:52:56.709Z,89.18
2023-04-02T17:55:41.318Z,88.86
2023-04-02T17:58:27.929Z,88.19
2023-04-02T18:01:10.182Z,88.42
2023-04-02T18:03:58.929Z,88.69
2023-04-02T18:06:38.221Z,88.52
2023-04-02T18:09:28.072Z,88.00
2023-04-02T18:12:09.610Z,86.92
2023-04-02T18:15:00.973Z,87.11
2023-04-02T18:17:41.403Z,86.53
2023-04-02T18:20:23.682Z,87.30
2023-04-02T18:23:03.646Z,86.15
2023-04-02T18:25:56.228Z,85.36
2023-04-02T18:29:08.378Z,85.27
2023-04-02T18:32:04.834Z,86.15
2023-04-02T18:34:52.107Z,86.85
2023-04-02T18:37:29.600Z,87.36
2023-04-02T18:40:12.957Z,88.94
2023-04-02T18:42:59.171Z,88.24
2023-04-02T18:45:41.397Z,88.06
2023-04-02T18:48:27.112Z,87.61
2023-04-02T18:50:58.315Z,88.32
2023-04-02T18:53:30.542Z,86.67
2023-04-02T18:56:05.546Z,86.25
2023-04-02T18:58:44.349Z,86.10
2023-04-02T19:01:38.774Z,87.92
2023-04-02T19:04:11.449Z,87.27
2023-04-02T19:06:45.502Z,86.11
2023-04-02T19:09:18.261Z,86.04
2023-04-02T19:11:48.094Z,86.32
2023-04-02T19:14:20.477Z,86.27
2023-04-02T19:17:04.818Z,86.88
2023-04-02T19:19:41.526Z,87.56
2023-04-02T19:22:18.207Z,87.98
2023-04-02T19:25:05.212Z,88.35
2023-04-02T19:27:44.064Z,87.49
2023-04-02T19:30:39.403Z,87.39
2023-04-02T19:33:23.633Z,87.97
2023-04-02T19:35:57.496Z,88.21
2023-04-02T19:38:47.033Z,88.35
2023-04-02T19:41:26.756Z,89.11
2023-04-02T19:43:57.089Z,89.70
2023-04-02T19:46:27.775Z,89.85
2023-04-02T19:49:04.704Z,90.11
2023-04-02T19:51:34.968Z,90.33
2023-04-02T19:54:04.356Z,91.11
2023-04-02T19:56:34.253Z,91.19
2023-04-02T19:59:17.061Z,91.33
2023-04-02T20:01:48.380Z,91.13
2023-04-02T20:04:19.794Z,90.81
2023-04-02T20:06:49.346Z,91.41
2023-04-02T20:09:18.667Z,92.01
2023-04-02T20:11:49.285Z,92.19
2023-04-02T20:14:18.831Z,92.22
2023-04-02T20:16:49.258Z,93.16
2023-04-02T20:19:20.932Z,93.12
2023-04-02T20:21:50.997Z,93.28
2023-04-02T20:24:22.896Z,93.61
2023-04-02T20:26:55.424Z,93.83
2023-04-02T20:29:27.937Z,93.59
2023-04-02T20:31:57.820Z,94.39
2023-04-02T20:34:28.635Z,93.75
2023-04-02T20:36:58.667Z,94.33
2023-04-02T20:39:28.964Z,94.41
2023-04-02T20:42:02.791Z,94.33
2023-04-02T20:44:32.067Z,94.68
2023-04-02T20:47:02.095Z,95.60
2023-04-02T20:49:32.603Z,96.47
2023-04-02T20:52:01.927Z,96.82
2023-04-02T20:54:31.177Z,97.17
2023-04-02T20:57:06.512Z,97.46
2023-04-02T20:59:35.778Z,97.87
2023-04-02T21:02:04.731Z,98.55
2023-04-02T21:04:35.133Z,99.11
2023-04-02T21:07:04.239Z,99.23
2023-04-02T21:09:33.294Z,99.85
2023-04-02T21:12:02.364Z,99.80
2023-04-02T21:14:35.848Z,99.75
2023-04-02T21:17:06.122Z,99.84
2023-04-02T21:19:36.798Z,99.85
2023-04-02T21:22:05.831Z,99.75
2023-04-02T21:24:34.976Z,99.70
2023-04-02T21:27:03.945Z,99.79
2023-04-02T21:29:33.068Z,99.68
2023-04-02T21:32:08.260Z,100.00
2023-04-02T21:34:44.719Z,100.00
2023-04-02T21:37:13.618Z,100.00
2023-04-02T21:39:42.735Z,100.00
2023-04-02T21:42:13.486Z,100.00
2023-04-02T21:44:42.455Z,100.00
2023-04-02T21:47:11.468Z,100.00
2023-04-02T21:49:40.615Z,100.00
2023-04-02T21:52:11.983Z,100.00
2023-04-02T21:54:40.937Z,100.00
2023-04-02T21:57:09.997Z,100.00
2023-04-02T21:59:38.969Z,100.00
2023-04-02T22:02:08.087Z,100.00
2023-04-02T22:04:37.130Z,100.00
2023-04-02T22:07:06.111Z,100.00
2023-04-02T22:09:36.921Z,100.00
2023-04-02T22:12:08.150Z,100.00
2023-04-02T22:14:37.160Z,100.00
2023-04-02T22:17:06.345Z,100.00
2023-04-02T22:19:35.880Z,100.00
2023-04-02T22:22:04.970Z,100.00
2023-04-02T22:24:34.114Z,100.00
2023-04-02T22:27:04.764Z,100.00
2023-04-02T22:29:33.831Z,100.00
2023-04-02T22:32:02.906Z,100.00
2023-04-02T22:34:32.062Z,100.00
2023-04-02T22:37:01.321Z,100.00
2023-04-02T22:39:30.429Z,100.00
2023-04-02T22:41:59.350Z,100.00
2023-04-02T22:44:29.675Z,100.00
2023-04-02T22:46:58.767Z,100.00
2023-04-02T22:49:27.830Z,100.00
2023-04-02T22:51:56.771Z,100.00
2023-04-02T22:54:25.803Z,100.00
2023-04-02T22:56:54.627Z,100.00
2023-04-02T22:59:23.635Z,100.00
2023-04-02T23:01:54.002Z,100.00
2023-04-02T23:04:22.976Z,100.00
2023-04-02T23:06:52.005Z,100.00
2023-04-02T23:09:21.568Z,100.00
2023-04-02T23:11:50.611Z,100.00
2023-04-02T23:14:19.742Z,100.00
2023-04-02T23:16:48.656Z,100.00
2023-04-02T23:19:18.939Z,100.00
2023-04-02T23:21:47.923Z,100.00
2023-04-02T23:24:17.275Z,100.00
2023-04-02T23:26:46.348Z,100.00
2023-04-02T23:29:15.750Z,100.00
2023-04-02T23:31:44.728Z,100.00
2023-04-02T23:34:13.791Z,100.00
2023-04-02T23:36:44.122Z,100.00
2023-04-02T23:39:14.753Z,100.00
2023-04-02T23:41:44.256Z,100.00
2023-04-02T23:44:13.420Z,100.00
2023-04-02T23:46:42.500Z,100.00
2023-04-02T23:49:12.995Z,100.00
2023-04-02T23:51:43.417Z,100.00
2023-04-02T23:54:13.896Z,100.00
2023-04-02T23:56:43.301Z,100.00
2023-04-02T23:59:12.299Z,100.00
